Latest Weather Observations for Warburton

IDD60801

Issued at 10:31 pm CST Monday 31 August 2015 (issued every 30 minutes, with the page automatically refreshed every 10 minutes)

About weather observations | Map of weather stations | Latest weather observations for NT | Other Formats
Station Details ID: 013011 Name: WARBURTON AIRFIELD Lat: -26.13 Lon: 126.58 Height: 459.0 m
Data from the previous 72 hours. | See also: Recent months at Warburton
Date/Time
CST
Temp
°C
App
Temp
°C
Dew
Point
Rel
Hum
%
Delta-T
°C
Wind Press
QNH
hPa
Press
MSL
hPa
Rain
since 9 am
mm
Dir
 
Spd
km/h
Gust
km/h
Spd
kts
Gust
kts
31/10:30pm 18.2 16.8 8.7 54 5.0 S 6 7 3 4 1013.2 1012.3 0.0
31/10:00pm 19.1 17.5 8.7 51 5.5 S 7 11 4 6 1013.2 - 0.0
31/09:30pm 20.1 17.6 8.4 47 6.2 S 11 17 6 9 1013.1 - 0.0
31/09:00pm 21.2 17.8 7.8 42 7.1 SSW 15 20 8 11 1012.9 - 0.0
31/08:30pm 22.2 17.9 7.2 38 7.9 SSW 19 24 10 13 1012.5 - 0.0
31/08:00pm 22.9 18.9 9.0 41 7.6 WSW 20 28 11 15 1012.4 - 0.0
31/07:30pm 22.7 21.2 9.1 42 7.5 S 7 11 4 6 1011.9 1011.1 0.0
31/07:00pm 24.0 21.6 8.8 38 8.3 S 11 17 6 9 1011.6 - 0.0
31/06:30pm 25.0 22.2 8.5 35 9.1 SSW 13 19 7 10 1011.6 - 0.0
31/06:00pm 26.4 22.9 7.4 30 10.3 WSW 15 20 8 11 1011.4 - 0.0
31/05:30pm 26.9 22.8 7.9 30 10.4 WSW 19 28 10 15 1011.3 - 0.0
31/05:00pm 28.0 24.4 6.7 26 11.5 WSW 15 20 8 11 1011.3 - 0.0
31/04:30pm 27.7 23.7 6.5 26 11.4 SW 17 24 9 13 1011.4 1010.5 0.0
31/04:00pm 26.0 20.7 8.5 33 9.7 WSW 26 50 14 27 1011.6 - 0.0
31/03:30pm 27.0 22.4 6.4 27 11.0 WSW 20 26 11 14 1011.8 - 0.0
31/03:00pm 27.6 23.5 8.0 29 10.8 SW 19 28 10 15 1012.3 - 0.0
31/02:30pm 29.6 24.5 4.3 20 13.3 NNW 20 35 11 19 1012.5 - 0.0
31/02:00pm 27.9 23.8 8.7 30 10.7 NNW 20 30 11 16 1013.2 - 0.0
31/01:30pm 27.6 24.6 10.8 35 9.7 N 17 26 9 14 1013.8 1013.0 0.0
31/01:00pm 26.6 24.4 10.7 37 9.1 NNW 13 26 7 14 1014.7 - 0.0
31/12:30pm 26.6 25.0 11.5 39 8.8 NW 11 19 6 10 1015.3 - 0.0
31/12:00pm 25.9 24.1 12.0 42 8.1 N 13 20 7 11 1015.8 - 0.0
31/11:30am 24.6 24.1 12.5 46 7.1 NNW 7 19 4 10 1016.3 - 0.0
31/11:00am 23.2 22.5 13.1 53 5.9 NNW 9 19 5 10 1016.6 - 0.0
31/10:30am 22.5 22.9 13.6 57 5.3 N 4 11 2 6 1016.9 1016.0 0.0
31/10:00am 20.0 20.8 13.7 67 3.7 SW 2 7 1 4 1017.0 - 0.0
31/09:30am 19.0 19.3 13.4 70 3.3 SSW 4 9 2 5 1017.1 - 0.0
31/09:00am 17.9 17.8 13.2 74 2.7 SSE 6 9 3 5 1017.1 - 0.0
31/08:30am 16.7 17.5 12.5 76 2.4 CALM 0 0 0 0 1016.9 - 0.0
31/08:00am 15.4 16.0 11.8 79 2.0 CALM 0 0 0 0 1016.2 - 0.0
31/07:30am 14.0 13.3 11.5 85 1.4 SSW 6 9 3 5 1015.9 1015.1 0.0
31/07:00am 14.6 14.3 11.4 81 1.8 N 4 7 2 4 1015.7 - 0.0
31/06:30am 13.4 12.0 10.8 84 1.4 NNE 9 11 5 6 1015.4 - 0.0
31/06:00am 13.4 13.5 10.2 81 1.7 CALM 0 0 0 0 1015.4 - 0.0
31/05:30am 13.4 13.0 9.8 79 1.9 N 2 9 1 5 1015.1 - 0.0
31/05:00am 13.8 12.6 10.4 80 1.8 NE 7 9 4 5 1015.0 - 0.0
31/04:30am 14.4 13.0 10.8 79 1.9 NNE 9 11 5 6 1015.3 1014.5 0.0
31/04:00am 15.0 14.6 11.2 78 2.1 NNE 4 6 2 3 1015.6 - 0.0
31/03:30am 16.4 16.6 11.8 74 2.6 NNE 2 7 1 4 1015.8 - 0.0
31/03:00am 16.7 16.1 11.8 73 2.7 W 6 15 3 8 1016.0 - 0.0
31/02:30am 17.0 16.3 11.5 70 3.1 ENE 6 9 3 5 1015.8 - 0.0
31/02:00am 18.0 17.5 12.0 68 3.4 ENE 6 11 3 6 1015.9 - 0.0
31/01:30am 18.4 17.2 11.7 65 3.8 E 9 11 5 6 1016.0 1015.2 0.0
31/01:00am 19.2 17.6 11.7 62 4.2 SE 11 15 6 8 1016.1 - 0.0
31/12:30am 19.9 18.3 11.7 59 4.6 SSE 11 17 6 9 1016.3 - 0.0
31/12:00am 20.6 18.5 11.2 55 5.3 ESE 13 17 7 9 1016.4 - 0.0
 
Date/Time
CST
Temp
°C
App
Temp
°C
Dew
Point
Rel
Hum
%
Delta-T
°C
Wind Press
QNH
hPa
Press
MSL
hPa
Rain
since 9 am
mm
Dir
 
Spd
km/h
Gust
km/h
Spd
kts
Gust
kts
30/11:30pm 21.2 17.8 11.2 53 5.6 ESE 20 28 11 15 1016.4 - 0.0
30/11:00pm 21.7 18.3 10.5 49 6.3 SE 19 26 10 14 1016.3 - 0.0
30/10:30pm 22.5 18.8 10.3 46 6.8 SE 20 28 11 15 1016.5 1015.7 0.0
30/10:00pm 23.5 19.4 8.8 39 8.0 SE 20 28 11 15 1016.1 - 0.0
30/09:30pm 24.1 20.2 8.5 37 8.5 S 19 26 10 14 1016.3 - 0.0
30/09:00pm 25.5 20.4 6.2 29 10.2 SSE 22 32 12 17 1016.1 - 0.0
30/08:30pm 26.6 23.1 5.5 26 11.1 SW 13 20 7 11 1016.0 - 0.0
30/08:00pm 26.8 23.0 5.7 26 11.1 WNW 15 20 8 11 1015.6 - 0.0
30/07:30pm 27.4 22.9 6.2 26 11.3 NW 19 26 10 14 1015.3 1014.5 0.0
30/07:00pm 27.7 24.7 2.0 19 12.8 W 7 9 4 5 1014.8 - 0.0
30/06:30pm 28.6 24.3 1.2 17 13.5 W 13 17 7 9 1014.3 - 0.0
30/06:00pm 29.2 23.7 1.7 17 13.7 WNW 20 28 11 15 1014.2 - 0.0
30/05:30pm 29.7 24.1 1.2 16 14.2 W 20 30 11 16 1014.2 - 0.0
30/05:00pm 29.6 24.0 1.1 16 14.1 WNW 20 33 11 18 1014.2 - 0.0
30/04:30pm 30.2 23.9 1.6 16 14.4 WNW 24 35 13 19 1014.2 1013.4 0.0
30/04:00pm 30.1 25.1 1.5 16 14.3 WNW 17 26 9 14 1014.2 - 0.0
30/03:30pm 29.4 24.9 4.1 20 13.2 SW 17 28 9 15 1014.4 - 0.0
30/03:00pm 29.3 24.3 4.7 21 13.0 W 20 32 11 17 1015.0 - 0.0
30/02:30pm 30.1 25.2 4.0 19 13.6 W 19 26 10 14 1015.1 - 0.0
30/02:00pm 29.7 25.9 5.7 22 12.9 NNW 15 28 8 15 1015.6 - 0.0
30/01:30pm 30.0 24.8 7.2 24 12.6 N 24 35 13 19 1016.3 1015.5 0.0
30/01:00pm 28.0 21.9 8.3 29 10.9 N 30 41 16 22 1016.9 - 0.0
30/12:30pm 28.2 23.4 9.0 30 10.8 N 24 37 13 20 1017.6 - 0.0
30/12:00pm 27.1 21.4 8.5 31 10.3 N 28 39 15 21 1018.3 - 0.0
30/11:30am 26.1 20.7 8.1 32 9.9 N 26 33 14 18 1018.7 - 0.0
30/11:00am 23.8 20.5 9.4 40 8.0 NE 17 24 9 13 1019.2 - 0.0
30/10:30am 22.3 19.2 8.8 42 7.3 NE 15 24 8 13 1019.4 1018.6 0.6
30/10:00am 20.5 17.0 10.3 52 5.6 E 19 24 10 13 1019.6 - 0.6
30/09:30am 18.4 15.4 10.7 61 4.2 ESE 17 24 9 13 1019.8 - 0.6
30/09:00am 17.3 13.8 10.9 66 3.5 SE 20 24 11 13 1019.7 - 0.6
30/08:30am 16.8 14.7 11.3 70 3.0 SE 13 17 7 9 1019.3 - 0.6
30/08:00am 15.7 13.3 11.5 76 2.3 SE 15 19 8 10 1018.6 - 0.6
30/07:30am 15.8 12.8 11.8 77 2.2 SSW 19 22 10 12 1018.2 1017.4 0.6
30/07:00am 15.5 14.3 11.5 77 2.2 ESE 9 13 5 7 1017.2 - 0.6
30/06:30am 15.8 13.9 11.8 77 2.2 SE 13 17 7 9 1017.1 - 0.6
30/06:00am 15.9 14.0 11.7 76 2.3 SSE 13 15 7 8 1017.0 - 0.6
30/05:30am 16.2 14.4 10.9 71 2.9 ESE 11 19 6 10 1016.9 - 0.6
30/05:00am 16.4 15.1 11.1 71 2.9 SSE 9 11 5 6 1017.3 - 0.6
30/04:30am 16.4 14.7 11.1 71 2.9 S 11 15 6 8 1017.1 1016.2 0.6
30/04:00am 16.7 14.6 11.0 69 3.1 SSE 13 15 7 8 1016.5 - 0.6
30/03:30am 17.7 14.6 10.3 62 4.0 ESE 17 22 9 12 1016.5 - 0.6
30/03:00am 17.9 15.1 10.0 60 4.3 E 15 19 8 10 1016.7 - 0.6
30/02:30am 17.6 15.3 10.5 63 3.9 ESE 13 19 7 10 1016.9 - 0.6
30/02:00am 17.9 14.2 10.3 61 4.1 E 20 26 11 14 1017.2 - 0.6
30/01:30am 18.4 15.1 9.7 57 4.7 E 17 26 9 14 1017.5 1016.7 0.6
30/01:00am 17.8 14.7 10.4 62 4.0 ENE 17 26 9 14 1017.8 - 0.6
30/12:30am 19.0 15.5 10.3 57 4.8 E 19 28 10 15 1018.0 - 0.6
30/12:00am 18.4 15.9 11.0 62 4.1 E 15 22 8 12 1017.9 - 0.6
 
Date/Time
CST
Temp
°C
App
Temp
°C
Dew
Point
Rel
Hum
%
Delta-T
°C
Wind Press
QNH
hPa
Press
MSL
hPa
Rain
since 9 am
mm
Dir
 
Spd
km/h
Gust
km/h
Spd
kts
Gust
kts
29/11:30pm 17.9 14.8 11.5 66 3.6 E 19 24 10 13 1018.1 - 0.6
29/11:00pm 17.5 14.0 12.2 71 3.0 ESE 22 30 12 16 1018.0 - 0.6
29/10:30pm 17.9 14.4 12.1 69 3.3 ESE 22 32 12 17 1018.2 1017.4 0.6
29/10:00pm 17.8 13.1 13.3 75 2.6 SE 30 41 16 22 1018.4 - 0.6
29/09:30pm 17.4 14.7 13.5 78 2.3 S 20 28 11 15 1019.7 - 0.6
29/09:00pm 18.4 14.7 12.8 70 3.2 SSE 24 32 13 17 1019.4 - 0.4
29/08:30pm 22.4 17.2 8.9 42 7.4 ESE 26 39 14 21 1018.1 - 0.0
29/08:00pm 24.7 22.1 6.0 30 9.8 E 9 11 5 6 1017.1 - 0.0
29/07:30pm 25.1 24.1 5.8 29 10.1 CALM 0 6 0 3 1017.0 1016.1 0.0
29/07:00pm 26.0 24.3 6.1 28 10.5 N 4 7 2 4 1016.7 - 0.0
29/06:30pm 26.6 23.5 5.5 26 11.1 N 11 15 6 8 1016.4 - 0.0
29/06:00pm 27.2 22.8 4.9 24 11.6 N 17 22 9 12 1016.4 - 0.0
29/05:30pm 27.9 24.2 6.1 25 11.7 NNW 15 24 8 13 1016.4 - 0.0
29/05:00pm 28.2 24.3 6.9 26 11.6 NNW 17 24 9 13 1016.4 - 0.0
29/04:30pm 27.4 23.3 6.2 26 11.3 NNW 17 24 9 13 1016.4 1015.6 0.0
29/04:00pm 27.8 22.0 4.2 22 12.2 N 24 33 13 18 1016.6 - 0.0
29/03:30pm 29.4 24.6 4.8 21 13.0 NW 19 26 10 14 1016.9 - 0.0
29/03:00pm 27.2 23.8 7.6 29 10.7 N 15 28 8 15 1017.3 - 0.0
29/02:30pm 28.0 23.3 6.2 25 11.7 N 20 32 11 17 1017.8 - 0.0
29/02:00pm 26.9 22.4 10.2 35 9.5 N 24 32 13 17 1018.4 - 0.0
29/01:30pm 25.8 20.8 9.6 36 9.1 N 26 35 14 19 1019.2 1018.4 0.0
29/01:00pm 26.3 21.3 9.6 35 9.4 N 26 37 14 20 1019.7 - 0.0
29/12:30pm 24.9 20.9 10.4 40 8.2 N 22 32 12 17 1020.2 - 0.0
29/12:00pm 24.7 20.7 10.6 41 8.0 N 22 30 12 16 1020.6 - 0.0
29/11:30am 23.5 19.2 10.9 45 7.2 N 24 35 13 19 1020.9 - 0.0
29/11:00am 23.2 19.4 11.3 47 6.8 N 22 32 12 17 1021.1 - 0.0
29/10:30am 22.1 18.0 11.5 51 6.0 N 24 33 13 18 1021.2 1020.5 0.0
29/10:00am 21.7 17.2 11.4 52 5.8 NNE 26 39 14 21 1021.0 - 0.0
29/09:30am 19.8 16.2 11.8 60 4.5 N 22 33 12 18 1021.0 - 0.0
29/09:00am 18.5 14.6 12.0 66 3.7 N 24 35 13 19 1020.6 - 0.0
29/08:30am 17.1 13.0 11.6 70 3.1 NNE 24 35 13 19 1020.3 - 0.0
29/08:00am 16.2 12.1 11.6 74 2.5 NNE 24 32 13 17 1019.7 - 0.0
29/07:30am 15.4 11.6 11.2 76 2.3 NNE 22 30 12 16 1019.5 1018.7 0.0
29/07:00am 15.6 12.1 10.8 73 2.6 NNE 20 28 11 15 1019.5 - 0.0
29/06:30am 15.9 12.2 10.2 69 3.1 NNE 20 28 11 15 1019.3 - 0.0
29/06:00am 16.0 12.3 9.4 65 3.5 NNE 19 26 10 14 1018.8 - 0.0
29/05:30am 16.2 12.7 8.9 62 3.8 NNE 17 22 9 12 1018.8 - 0.0
29/05:00am 15.7 11.9 5.6 51 5.0 NE 15 24 8 13 1018.6 - 0.0
29/04:30am 16.3 11.9 4.7 46 5.6 NE 17 22 9 12 1018.5 1017.7 0.0
29/04:00am 16.5 11.6 3.9 43 6.0 NE 19 22 10 12 1018.7 - 0.0
29/03:30am 17.3 12.1 3.6 40 6.5 NE 20 32 11 17 1018.8 - 0.0
29/03:00am 18.1 12.9 3.6 38 7.0 NE 20 28 11 15 1019.2 - 0.0
29/02:30am 19.0 14.4 3.6 36 7.4 ENE 17 22 9 12 1019.3 - 0.0
29/02:00am 19.2 15.2 2.6 33 7.9 ENE 13 20 7 11 1019.7 - 0.0
29/01:30am 18.3 14.5 1.8 33 7.6 E 11 17 6 9 1019.8 1019.0 0.0
29/01:00am 14.4 12.1 0.3 38 6.1 E 2 11 1 6 1020.1 - 0.0
29/12:30am 15.4 13.4 0.0 35 6.7 CALM 0 0 0 0 1020.2 - 0.0

Other Formats:

Comma delimited format used in spreadsheet applications
http://www.bom.gov.au/fwo/IDD60801/IDD60801.94457.axf

JavaScript Object Notation format (JSON) in row-major order
http://www.bom.gov.au/fwo/IDD60801/IDD60801.94457.json